sensor_id;sensor_type;location;lat;lon;timestamp;P1;durP1;ratioP1;P2;durP2;ratioP2
31978;SDS011;18502;43.574;1.276;2023-04-03T00:01:12;11.45;;;3.30;;
31978;SDS011;18502;43.574;1.276;2023-04-03T00:03:38;9.38;;;3.83;;
31978;SDS011;18502;43.574;1.276;2023-04-03T00:06:04;3.35;;;2.63;;
31978;SDS011;18502;43.574;1.276;2023-04-03T00:08:32;10.43;;;4.07;;
31978;SDS011;18502;43.574;1.276;2023-04-03T00:10:58;8.25;;;3.70;;
31978;SDS011;18502;43.574;1.276;2023-04-03T00:13:24;8.85;;;3.67;;
31978;SDS011;18502;43.574;1.276;2023-04-03T00:15:50;8.07;;;3.83;;
31978;SDS011;18502;43.574;1.276;2023-04-03T00:18:16;8.70;;;4.00;;
31978;SDS011;18502;43.574;1.276;2023-04-03T00:20:42;8.57;;;3.35;;
31978;SDS011;18502;43.574;1.276;2023-04-03T00:23:08;5.30;;;2.97;;
31978;SDS011;18502;43.574;1.276;2023-04-03T00:25:34;7.55;;;3.47;;
31978;SDS011;18502;43.574;1.276;2023-04-03T00:28:00;8.60;;;3.75;;
31978;SDS011;18502;43.574;1.276;2023-04-03T00:30:25;9.15;;;3.72;;
31978;SDS011;18502;43.574;1.276;2023-04-03T00:32:51;4.35;;;3.03;;
31978;SDS011;18502;43.574;1.276;2023-04-03T00:35:18;8.05;;;3.65;;
31978;SDS011;18502;43.574;1.276;2023-04-03T00:37:45;6.88;;;3.40;;
31978;SDS011;18502;43.574;1.276;2023-04-03T00:40:11;11.05;;;3.60;;
31978;SDS011;18502;43.574;1.276;2023-04-03T00:42:39;7.60;;;3.20;;
31978;SDS011;18502;43.574;1.276;2023-04-03T00:47:38;8.20;;;3.63;;
31978;SDS011;18502;43.574;1.276;2023-04-03T00:50:05;8.60;;;3.45;;
31978;SDS011;18502;43.574;1.276;2023-04-03T00:52:32;4.93;;;3.22;;
31978;SDS011;18502;43.574;1.276;2023-04-03T00:54:59;5.78;;;3.47;;
31978;SDS011;18502;43.574;1.276;2023-04-03T00:57:28;6.68;;;3.67;;
31978;SDS011;18502;43.574;1.276;2023-04-03T00:59:57;5.97;;;3.17;;
31978;SDS011;18502;43.574;1.276;2023-04-03T01:02:28;7.25;;;3.72;;
31978;SDS011;18502;43.574;1.276;2023-04-03T01:04:53;7.28;;;3.78;;
31978;SDS011;18502;43.574;1.276;2023-04-03T01:07:21;5.18;;;3.20;;
31978;SDS011;18502;43.574;1.276;2023-04-03T01:09:52;7.38;;;3.95;;
31978;SDS011;18502;43.574;1.276;2023-04-03T01:15:21;7.93;;;3.88;;
31978;SDS011;18502;43.574;1.276;2023-04-03T01:17:49;7.85;;;4.57;;
31978;SDS011;18502;43.574;1.276;2023-04-03T01:25:22;11.25;;;4.60;;
31978;SDS011;18502;43.574;1.276;2023-04-03T01:27:49;9.18;;;3.97;;
31978;SDS011;18502;43.574;1.276;2023-04-03T01:30:16;9.68;;;3.22;;
31978;SDS011;18502;43.574;1.276;2023-04-03T01:32:43;6.75;;;3.85;;
31978;SDS011;18502;43.574;1.276;2023-04-03T01:35:09;9.27;;;4.10;;
31978;SDS011;18502;43.574;1.276;2023-04-03T01:37:35;6.18;;;3.83;;
31978;SDS011;18502;43.574;1.276;2023-04-03T01:40:02;7.13;;;4.00;;
31978;SDS011;18502;43.574;1.276;2023-04-03T01:42:28;8.68;;;3.97;;
31978;SDS011;18502;43.574;1.276;2023-04-03T01:44:54;8.43;;;4.65;;
31978;SDS011;18502;43.574;1.276;2023-04-03T01:47:20;9.88;;;3.67;;
31978;SDS011;18502;43.574;1.276;2023-04-03T01:49:47;6.43;;;4.70;;
31978;SDS011;18502;43.574;1.276;2023-04-03T01:52:12;8.27;;;4.03;;
31978;SDS011;18502;43.574;1.276;2023-04-03T01:54:38;8.90;;;4.38;;
31978;SDS011;18502;43.574;1.276;2023-04-03T01:57:04;8.27;;;4.03;;
31978;SDS011;18502;43.574;1.276;2023-04-03T01:59:30;8.82;;;3.90;;
31978;SDS011;18502;43.574;1.276;2023-04-03T02:01:55;5.55;;;3.60;;
31978;SDS011;18502;43.574;1.276;2023-04-03T02:04:21;9.50;;;3.80;;
31978;SDS011;18502;43.574;1.276;2023-04-03T02:06:47;7.55;;;3.13;;
31978;SDS011;18502;43.574;1.276;2023-04-03T02:09:12;6.43;;;3.97;;
31978;SDS011;18502;43.574;1.276;2023-04-03T02:11:38;9.15;;;3.55;;
31978;SDS011;18502;43.574;1.276;2023-04-03T02:14:04;8.35;;;4.13;;
31978;SDS011;18502;43.574;1.276;2023-04-03T02:16:30;6.47;;;3.95;;
31978;SDS011;18502;43.574;1.276;2023-04-03T02:18:56;6.45;;;3.50;;
31978;SDS011;18502;43.574;1.276;2023-04-03T02:21:21;5.38;;;3.78;;
31978;SDS011;18502;43.574;1.276;2023-04-03T02:23:47;9.98;;;4.15;;
31978;SDS011;18502;43.574;1.276;2023-04-03T02:26:13;6.38;;;3.75;;
31978;SDS011;18502;43.574;1.276;2023-04-03T02:28:41;7.60;;;4.35;;
31978;SDS011;18502;43.574;1.276;2023-04-03T02:31:07;12.15;;;4.88;;
31978;SDS011;18502;43.574;1.276;2023-04-03T02:33:34;10.73;;;4.78;;
31978;SDS011;18502;43.574;1.276;2023-04-03T02:36:01;6.88;;;4.10;;
31978;SDS011;18502;43.574;1.276;2023-04-03T02:38:28;5.63;;;4.20;;
31978;SDS011;18502;43.574;1.276;2023-04-03T02:40:59;8.50;;;4.60;;
31978;SDS011;18502;43.574;1.276;2023-04-03T02:43:29;6.28;;;4.05;;
31978;SDS011;18502;43.574;1.276;2023-04-03T02:45:55;6.95;;;4.78;;
31978;SDS011;18502;43.574;1.276;2023-04-03T02:48:20;7.15;;;4.88;;
31978;SDS011;18502;43.574;1.276;2023-04-03T02:50:46;7.60;;;4.50;;
31978;SDS011;18502;43.574;1.276;2023-04-03T02:53:12;4.50;;;3.72;;
31978;SDS011;18502;43.574;1.276;2023-04-03T02:55:38;9.02;;;4.60;;
31978;SDS011;18502;43.574;1.276;2023-04-03T02:58:03;8.15;;;4.47;;
31978;SDS011;18502;43.574;1.276;2023-04-03T03:00:29;7.75;;;4.65;;
31978;SDS011;18502;43.574;1.276;2023-04-03T03:02:55;10.88;;;4.70;;
31978;SDS011;18502;43.574;1.276;2023-04-03T03:05:21;9.98;;;4.43;;
31978;SDS011;18502;43.574;1.276;2023-04-03T03:07:47;8.00;;;4.15;;
31978;SDS011;18502;43.574;1.276;2023-04-03T03:10:12;7.28;;;4.30;;
31978;SDS011;18502;43.574;1.276;2023-04-03T03:12:38;7.20;;;4.13;;
31978;SDS011;18502;43.574;1.276;2023-04-03T03:15:05;5.47;;;4.57;;
31978;SDS011;18502;43.574;1.276;2023-04-03T03:17:32;8.65;;;4.63;;
31978;SDS011;18502;43.574;1.276;2023-04-03T03:19:58;5.57;;;4.28;;
31978;SDS011;18502;43.574;1.276;2023-04-03T03:22:23;6.78;;;4.40;;
31978;SDS011;18502;43.574;1.276;2023-04-03T03:24:49;8.45;;;4.78;;
31978;SDS011;18502;43.574;1.276;2023-04-03T03:27:15;6.00;;;4.22;;
31978;SDS011;18502;43.574;1.276;2023-04-03T03:29:41;8.18;;;4.55;;
31978;SDS011;18502;43.574;1.276;2023-04-03T03:32:07;8.80;;;5.32;;
31978;SDS011;18502;43.574;1.276;2023-04-03T03:34:33;7.50;;;4.72;;
31978;SDS011;18502;43.574;1.276;2023-04-03T03:36:59;6.53;;;4.63;;
31978;SDS011;18502;43.574;1.276;2023-04-03T03:39:24;10.00;;;5.53;;
31978;SDS011;18502;43.574;1.276;2023-04-03T03:41:50;13.95;;;5.13;;
31978;SDS011;18502;43.574;1.276;2023-04-03T03:44:18;6.20;;;4.70;;
31978;SDS011;18502;43.574;1.276;2023-04-03T03:46:44;10.88;;;5.03;;
31978;SDS011;18502;43.574;1.276;2023-04-03T03:49:10;9.43;;;5.10;;
31978;SDS011;18502;43.574;1.276;2023-04-03T03:51:36;6.97;;;4.63;;
31978;SDS011;18502;43.574;1.276;2023-04-03T03:54:02;8.70;;;5.07;;
31978;SDS011;18502;43.574;1.276;2023-04-03T03:56:28;7.70;;;4.75;;
31978;SDS011;18502;43.574;1.276;2023-04-03T03:58:54;10.82;;;4.88;;
31978;SDS011;18502;43.574;1.276;2023-04-03T04:01:21;6.85;;;5.00;;
31978;SDS011;18502;43.574;1.276;2023-04-03T04:03:48;7.82;;;4.85;;
31978;SDS011;18502;43.574;1.276;2023-04-03T04:06:14;6.43;;;4.38;;
31978;SDS011;18502;43.574;1.276;2023-04-03T04:08:40;7.32;;;4.38;;
31978;SDS011;18502;43.574;1.276;2023-04-03T04:11:06;10.65;;;5.00;;
31978;SDS011;18502;43.574;1.276;2023-04-03T04:13:31;8.63;;;4.97;;
31978;SDS011;18502;43.574;1.276;2023-04-03T04:15:57;6.85;;;5.13;;
31978;SDS011;18502;43.574;1.276;2023-04-03T04:18:23;8.70;;;4.75;;
31978;SDS011;18502;43.574;1.276;2023-04-03T04:20:49;7.85;;;4.40;;
31978;SDS011;18502;43.574;1.276;2023-04-03T04:23:15;8.25;;;4.80;;
31978;SDS011;18502;43.574;1.276;2023-04-03T04:25:44;9.07;;;5.40;;
31978;SDS011;18502;43.574;1.276;2023-04-03T04:28:11;10.93;;;4.93;;
31978;SDS011;18502;43.574;1.276;2023-04-03T04:30:37;8.68;;;4.55;;
31978;SDS011;18502;43.574;1.276;2023-04-03T04:33:03;10.23;;;4.95;;
31978;SDS011;18502;43.574;1.276;2023-04-03T04:35:29;6.82;;;5.40;;
31978;SDS011;18502;43.574;1.276;2023-04-03T04:37:54;6.63;;;5.20;;
31978;SDS011;18502;43.574;1.276;2023-04-03T04:40:20;8.52;;;5.43;;
31978;SDS011;18502;43.574;1.276;2023-04-03T04:42:46;8.63;;;5.80;;
31978;SDS011;18502;43.574;1.276;2023-04-03T04:45:12;8.00;;;5.50;;
31978;SDS011;18502;43.574;1.276;2023-04-03T04:47:37;9.90;;;5.45;;
31978;SDS011;18502;43.574;1.276;2023-04-03T04:50:03;10.25;;;5.70;;
31978;SDS011;18502;43.574;1.276;2023-04-03T04:52:29;7.85;;;6.22;;
31978;SDS011;18502;43.574;1.276;2023-04-03T04:54:55;10.63;;;6.22;;
31978;SDS011;18502;43.574;1.276;2023-04-03T04:57:21;8.23;;;5.65;;
31978;SDS011;18502;43.574;1.276;2023-04-03T04:59:46;10.65;;;6.03;;
31978;SDS011;18502;43.574;1.276;2023-04-03T05:02:12;9.60;;;6.43;;
31978;SDS011;18502;43.574;1.276;2023-04-03T05:04:38;10.07;;;6.40;;
31978;SDS011;18502;43.574;1.276;2023-04-03T05:07:03;8.15;;;5.72;;
31978;SDS011;18502;43.574;1.276;2023-04-03T05:09:29;10.25;;;6.07;;
31978;SDS011;18502;43.574;1.276;2023-04-03T05:11:55;10.05;;;6.35;;
31978;SDS011;18502;43.574;1.276;2023-04-03T05:14:21;9.02;;;5.63;;
31978;SDS011;18502;43.574;1.276;2023-04-03T05:16:47;13.07;;;6.55;;
31978;SDS011;18502;43.574;1.276;2023-04-03T05:19:13;10.95;;;5.65;;
31978;SDS011;18502;43.574;1.276;2023-04-03T05:21:39;10.13;;;5.95;;
31978;SDS011;18502;43.574;1.276;2023-04-03T05:24:04;8.57;;;5.07;;
31978;SDS011;18502;43.574;1.276;2023-04-03T05:26:34;7.53;;;6.65;;
31978;SDS011;18502;43.574;1.276;2023-04-03T05:28:59;8.60;;;5.88;;
31978;SDS011;18502;43.574;1.276;2023-04-03T05:31:25;9.25;;;5.72;;
31978;SDS011;18502;43.574;1.276;2023-04-03T05:33:54;11.55;;;6.38;;
31978;SDS011;18502;43.574;1.276;2023-04-03T05:36:19;13.00;;;7.60;;
31978;SDS011;18502;43.574;1.276;2023-04-03T05:38:45;14.98;;;7.97;;
31978;SDS011;18502;43.574;1.276;2023-04-03T05:41:11;10.80;;;5.47;;
31978;SDS011;18502;43.574;1.276;2023-04-03T05:43:37;9.93;;;5.18;;
31978;SDS011;18502;43.574;1.276;2023-04-03T05:46:04;9.13;;;6.43;;
31978;SDS011;18502;43.574;1.276;2023-04-03T05:48:33;7.72;;;5.45;;
31978;SDS011;18502;43.574;1.276;2023-04-03T05:50:59;9.02;;;5.45;;
31978;SDS011;18502;43.574;1.276;2023-04-03T05:53:27;9.70;;;5.78;;
31978;SDS011;18502;43.574;1.276;2023-04-03T05:55:54;11.10;;;6.63;;
31978;SDS011;18502;43.574;1.276;2023-04-03T05:58:20;8.25;;;6.05;;
31978;SDS011;18502;43.574;1.276;2023-04-03T06:00:45;9.30;;;5.47;;
31978;SDS011;18502;43.574;1.276;2023-04-03T06:03:11;11.07;;;5.30;;
31978;SDS011;18502;43.574;1.276;2023-04-03T06:05:37;9.55;;;5.47;;
31978;SDS011;18502;43.574;1.276;2023-04-03T06:08:03;12.18;;;5.30;;
31978;SDS011;18502;43.574;1.276;2023-04-03T06:10:29;9.35;;;5.20;;
31978;SDS011;18502;43.574;1.276;2023-04-03T06:12:54;9.60;;;5.63;;
31978;SDS011;18502;43.574;1.276;2023-04-03T06:15:20;7.47;;;5.68;;
31978;SDS011;18502;43.574;1.276;2023-04-03T06:17:47;13.65;;;7.13;;
31978;SDS011;18502;43.574;1.276;2023-04-03T06:20:12;11.45;;;6.95;;
31978;SDS011;18502;43.574;1.276;2023-04-03T06:22:39;15.68;;;6.93;;
31978;SDS011;18502;43.574;1.276;2023-04-03T06:25:05;11.25;;;6.10;;
31978;SDS011;18502;43.574;1.276;2023-04-03T06:27:31;16.20;;;6.25;;
31978;SDS011;18502;43.574;1.276;2023-04-03T06:29:57;11.48;;;5.88;;
31978;SDS011;18502;43.574;1.276;2023-04-03T06:32:22;9.88;;;5.10;;
31978;SDS011;18502;43.574;1.276;2023-04-03T06:34:48;7.78;;;5.20;;
31978;SDS011;18502;43.574;1.276;2023-04-03T06:37:17;11.00;;;5.60;;
31978;SDS011;18502;43.574;1.276;2023-04-03T06:39:45;8.27;;;5.20;;
31978;SDS011;18502;43.574;1.276;2023-04-03T06:42:11;8.70;;;5.68;;
31978;SDS011;18502;43.574;1.276;2023-04-03T06:44:37;5.43;;;4.88;;
31978;SDS011;18502;43.574;1.276;2023-04-03T06:47:02;9.88;;;4.35;;
31978;SDS011;18502;43.574;1.276;2023-04-03T06:49:28;8.90;;;4.57;;
31978;SDS011;18502;43.574;1.276;2023-04-03T06:51:54;11.10;;;5.35;;
31978;SDS011;18502;43.574;1.276;2023-04-03T06:54:21;5.85;;;4.13;;
31978;SDS011;18502;43.574;1.276;2023-04-03T06:56:47;9.02;;;4.82;;
31978;SDS011;18502;43.574;1.276;2023-04-03T06:59:13;8.68;;;4.57;;
31978;SDS011;18502;43.574;1.276;2023-04-03T07:01:39;10.18;;;4.57;;
31978;SDS011;18502;43.574;1.276;2023-04-03T07:04:05;12.38;;;5.32;;
31978;SDS011;18502;43.574;1.276;2023-04-03T07:06:32;5.97;;;4.10;;
31978;SDS011;18502;43.574;1.276;2023-04-03T07:08:58;7.03;;;4.30;;
31978;SDS011;18502;43.574;1.276;2023-04-03T07:11:25;7.70;;;4.18;;
31978;SDS011;18502;43.574;1.276;2023-04-03T07:13:51;10.98;;;4.82;;
31978;SDS011;18502;43.574;1.276;2023-04-03T07:16:17;5.90;;;4.18;;
31978;SDS011;18502;43.574;1.276;2023-04-03T07:18:43;8.85;;;4.38;;
31978;SDS011;18502;43.574;1.276;2023-04-03T07:21:09;9.43;;;5.25;;
31978;SDS011;18502;43.574;1.276;2023-04-03T07:23:35;6.43;;;4.47;;
31978;SDS011;18502;43.574;1.276;2023-04-03T07:26:01;5.13;;;3.88;;
31978;SDS011;18502;43.574;1.276;2023-04-03T07:28:27;6.90;;;4.70;;
31978;SDS011;18502;43.574;1.276;2023-04-03T07:30:59;5.57;;;4.35;;
31978;SDS011;18502;43.574;1.276;2023-04-03T07:33:27;8.13;;;4.28;;
31978;SDS011;18502;43.574;1.276;2023-04-03T07:35:53;5.35;;;4.10;;
31978;SDS011;18502;43.574;1.276;2023-04-03T07:38:19;7.55;;;4.93;;
31978;SDS011;18502;43.574;1.276;2023-04-03T07:40:46;12.13;;;5.88;;
31978;SDS011;18502;43.574;1.276;2023-04-03T07:43:12;9.88;;;5.75;;
31978;SDS011;18502;43.574;1.276;2023-04-03T07:45:38;9.13;;;3.90;;
31978;SDS011;18502;43.574;1.276;2023-04-03T07:48:04;8.48;;;3.65;;
31978;SDS011;18502;43.574;1.276;2023-04-03T07:50:30;9.23;;;4.35;;
31978;SDS011;18502;43.574;1.276;2023-04-03T07:52:57;6.10;;;4.30;;
31978;SDS011;18502;43.574;1.276;2023-04-03T07:55:23;7.05;;;4.13;;
31978;SDS011;18502;43.574;1.276;2023-04-03T07:57:49;6.75;;;3.67;;
31978;SDS011;18502;43.574;1.276;2023-04-03T08:00:15;9.18;;;3.92;;
31978;SDS011;18502;43.574;1.276;2023-04-03T08:02:42;5.68;;;4.35;;
31978;SDS011;18502;43.574;1.276;2023-04-03T08:05:09;4.80;;;3.58;;
31978;SDS011;18502;43.574;1.276;2023-04-03T08:07:37;7.15;;;4.50;;
31978;SDS011;18502;43.574;1.276;2023-04-03T08:10:03;5.95;;;4.30;;
31978;SDS011;18502;43.574;1.276;2023-04-03T08:12:29;7.93;;;4.15;;
31978;SDS011;18502;43.574;1.276;2023-04-03T08:14:56;9.40;;;4.40;;
31978;SDS011;18502;43.574;1.276;2023-04-03T08:17:24;7.30;;;4.72;;
31978;SDS011;18502;43.574;1.276;2023-04-03T08:19:50;5.07;;;3.15;;
31978;SDS011;18502;43.574;1.276;2023-04-03T08:22:15;6.30;;;4.22;;
31978;SDS011;18502;43.574;1.276;2023-04-03T08:24:41;6.70;;;3.58;;
31978;SDS011;18502;43.574;1.276;2023-04-03T08:27:07;5.80;;;3.30;;
31978;SDS011;18502;43.574;1.276;2023-04-03T08:29:32;6.70;;;3.42;;
31978;SDS011;18502;43.574;1.276;2023-04-03T08:31:58;6.57;;;3.72;;
31978;SDS011;18502;43.574;1.276;2023-04-03T08:34:24;6.90;;;3.70;;
31978;SDS011;18502;43.574;1.276;2023-04-03T08:36:49;4.88;;;3.22;;
31978;SDS011;18502;43.574;1.276;2023-04-03T08:39:15;9.70;;;4.38;;
31978;SDS011;18502;43.574;1.276;2023-04-03T08:41:41;6.47;;;3.88;;
31978;SDS011;18502;43.574;1.276;2023-04-03T08:44:25;7.45;;;4.15;;
31978;SDS011;18502;43.574;1.276;2023-04-03T08:52:22;7.47;;;3.97;;
31978;SDS011;18502;43.574;1.276;2023-04-03T08:54:57;7.43;;;4.13;;
31978;SDS011;18502;43.574;1.276;2023-04-03T08:59:54;5.40;;;3.50;;
31978;SDS011;18502;43.574;1.276;2023-04-03T09:02:31;6.75;;;3.55;;
31978;SDS011;18502;43.574;1.276;2023-04-03T09:05:15;7.60;;;4.05;;
31978;SDS011;18502;43.574;1.276;2023-04-03T09:07:45;9.38;;;6.80;;
31978;SDS011;18502;43.574;1.276;2023-04-03T09:10:15;8.23;;;5.45;;
31978;SDS011;18502;43.574;1.276;2023-04-03T09:12:53;11.38;;;5.07;;
31978;SDS011;18502;43.574;1.276;2023-04-03T09:15:25;6.97;;;4.43;;
31978;SDS011;18502;43.574;1.276;2023-04-03T09:23:27;8.65;;;4.85;;
31978;SDS011;18502;43.574;1.276;2023-04-03T09:25:56;9.15;;;3.15;;
31978;SDS011;18502;43.574;1.276;2023-04-03T09:28:30;6.22;;;3.25;;
31978;SDS011;18502;43.574;1.276;2023-04-03T09:33:25;7.80;;;3.53;;
31978;SDS011;18502;43.574;1.276;2023-04-03T09:35:52;5.55;;;3.15;;
31978;SDS011;18502;43.574;1.276;2023-04-03T09:38:21;5.45;;;3.08;;
31978;SDS011;18502;43.574;1.276;2023-04-03T09:43:29;5.78;;;3.03;;
31978;SDS011;18502;43.574;1.276;2023-04-03T09:49:17;4.78;;;2.45;;
31978;SDS011;18502;43.574;1.276;2023-04-03T09:51:36;8.55;;;2.83;;
31978;SDS011;18502;43.574;1.276;2023-04-03T09:54:23;6.55;;;2.67;;
31978;SDS011;18502;43.574;1.276;2023-04-03T09:56:58;6.32;;;2.40;;
31978;SDS011;18502;43.574;1.276;2023-04-03T09:59:29;6.90;;;2.80;;
31978;SDS011;18502;43.574;1.276;2023-04-03T10:01:57;3.80;;;2.90;;
31978;SDS011;18502;43.574;1.276;2023-04-03T10:04:39;7.13;;;2.80;;
31978;SDS011;18502;43.574;1.276;2023-04-03T10:07:25;7.47;;;2.47;;
31978;SDS011;18502;43.574;1.276;2023-04-03T10:09:59;5.68;;;2.22;;
31978;SDS011;18502;43.574;1.276;2023-04-03T10:12:28;7.65;;;2.45;;
31978;SDS011;18502;43.574;1.276;2023-04-03T10:33:50;6.68;;;3.88;;
31978;SDS011;18502;43.574;1.276;2023-04-03T10:36:48;3.08;;;1.88;;
31978;SDS011;18502;43.574;1.276;2023-04-03T10:39:53;11.65;;;4.85;;
31978;SDS011;18502;43.574;1.276;2023-04-03T10:42:35;7.35;;;1.98;;
31978;SDS011;18502;43.574;1.276;2023-04-03T10:48:11;3.03;;;1.80;;
31978;SDS011;18502;43.574;1.276;2023-04-03T10:54:11;4.55;;;1.70;;
31978;SDS011;18502;43.574;1.276;2023-04-03T10:56:41;2.10;;;1.50;;
31978;SDS011;18502;43.574;1.276;2023-04-03T10:59:17;11.95;;;5.18;;
31978;SDS011;18502;43.574;1.276;2023-04-03T11:01:54;4.13;;;2.22;;
31978;SDS011;18502;43.574;1.276;2023-04-03T11:04:23;5.65;;;2.78;;
31978;SDS011;18502;43.574;1.276;2023-04-03T11:07:17;21.42;;;10.15;;
31978;SDS011;18502;43.574;1.276;2023-04-03T11:09:43;12.07;;;6.85;;
31978;SDS011;18502;43.574;1.276;2023-04-03T11:12:29;12.13;;;3.67;;
31978;SDS011;18502;43.574;1.276;2023-04-03T11:15:12;8.75;;;3.78;;
31978;SDS011;18502;43.574;1.276;2023-04-03T11:17:46;7.68;;;5.03;;
31978;SDS011;18502;43.574;1.276;2023-04-03T11:20:23;2.38;;;1.40;;
31978;SDS011;18502;43.574;1.276;2023-04-03T11:23:00;5.22;;;2.90;;
31978;SDS011;18502;43.574;1.276;2023-04-03T11:25:51;3.38;;;1.27;;
31978;SDS011;18502;43.574;1.276;2023-04-03T11:28:20;1.58;;;1.08;;
31978;SDS011;18502;43.574;1.276;2023-04-03T11:33:32;2.38;;;1.40;;
31978;SDS011;18502;43.574;1.276;2023-04-03T11:36:12;3.15;;;1.20;;
31978;SDS011;18502;43.574;1.276;2023-04-03T11:38:46;3.25;;;1.35;;
31978;SDS011;18502;43.574;1.276;2023-04-03T11:41:14;2.45;;;1.38;;
31978;SDS011;18502;43.574;1.276;2023-04-03T11:43:41;3.33;;;1.40;;
31978;SDS011;18502;43.574;1.276;2023-04-03T11:46:21;2.10;;;1.20;;
31978;SDS011;18502;43.574;1.276;2023-04-03T11:48:48;2.22;;;1.25;;
31978;SDS011;18502;43.574;1.276;2023-04-03T11:53:53;4.35;;;1.75;;
31978;SDS011;18502;43.574;1.276;2023-04-03T12:04:10;4.70;;;3.10;;
31978;SDS011;18502;43.574;1.276;2023-04-03T12:09:21;4.68;;;1.85;;
31978;SDS011;18502;43.574;1.276;2023-04-03T12:11:48;3.03;;;1.20;;
31978;SDS011;18502;43.574;1.276;2023-04-03T12:14:15;1.95;;;1.35;;
31978;SDS011;18502;43.574;1.276;2023-04-03T12:24:30;2.90;;;1.70;;
31978;SDS011;18502;43.574;1.276;2023-04-03T12:29:51;2.20;;;1.48;;
31978;SDS011;18502;43.574;1.276;2023-04-03T12:41:27;3.38;;;1.60;;
31978;SDS011;18502;43.574;1.276;2023-04-03T12:44:09;9.00;;;3.60;;
31978;SDS011;18502;43.574;1.276;2023-04-03T12:46:52;5.38;;;1.80;;
31978;SDS011;18502;43.574;1.276;2023-04-03T12:51:56;2.45;;;0.90;;
31978;SDS011;18502;43.574;1.276;2023-04-03T12:54:23;9.18;;;4.18;;
31978;SDS011;18502;43.574;1.276;2023-04-03T12:57:12;2.13;;;0.95;;
31978;SDS011;18502;43.574;1.276;2023-04-03T12:59:43;2.92;;;1.48;;
31978;SDS011;18502;43.574;1.276;2023-04-03T13:04:51;3.75;;;1.65;;
31978;SDS011;18502;43.574;1.276;2023-04-03T13:07:19;2.78;;;1.10;;
31978;SDS011;18502;43.574;1.276;2023-04-03T13:10:03;4.90;;;1.83;;
31978;SDS011;18502;43.574;1.276;2023-04-03T13:12:32;4.25;;;1.30;;
31978;SDS011;18502;43.574;1.276;2023-04-03T13:15:13;1.90;;;0.95;;
31978;SDS011;18502;43.574;1.276;2023-04-03T13:17:41;4.35;;;1.73;;
31978;SDS011;18502;43.574;1.276;2023-04-03T13:20:27;2.97;;;1.17;;
31978;SDS011;18502;43.574;1.276;2023-04-03T13:25:31;3.28;;;0.98;;
31978;SDS011;18502;43.574;1.276;2023-04-03T13:27:59;5.13;;;1.35;;
31978;SDS011;18502;43.574;1.276;2023-04-03T13:32:55;2.63;;;1.50;;
31978;SDS011;18502;43.574;1.276;2023-04-03T13:37:56;4.82;;;1.33;;
31978;SDS011;18502;43.574;1.276;2023-04-03T13:40:23;2.13;;;1.20;;
31978;SDS011;18502;43.574;1.276;2023-04-03T13:42:58;2.63;;;1.05;;
31978;SDS011;18502;43.574;1.276;2023-04-03T13:48:34;3.28;;;1.27;;
31978;SDS011;18502;43.574;1.276;2023-04-03T13:51:07;5.32;;;1.90;;
31978;SDS011;18502;43.574;1.276;2023-04-03T13:53:49;2.75;;;1.20;;
31978;SDS011;18502;43.574;1.276;2023-04-03T14:01:41;7.03;;;1.50;;
31978;SDS011;18502;43.574;1.276;2023-04-03T14:04:15;3.28;;;0.95;;
31978;SDS011;18502;43.574;1.276;2023-04-03T14:06:52;2.45;;;1.10;;
31978;SDS011;18502;43.574;1.276;2023-04-03T14:09:20;1.77;;;0.90;;
31978;SDS011;18502;43.574;1.276;2023-04-03T14:11:48;7.88;;;2.63;;
31978;SDS011;18502;43.574;1.276;2023-04-03T14:14:24;3.63;;;1.20;;
31978;SDS011;18502;43.574;1.276;2023-04-03T14:16:55;3.55;;;1.50;;
31978;SDS011;18502;43.574;1.276;2023-04-03T14:19:32;3.58;;;1.50;;
31978;SDS011;18502;43.574;1.276;2023-04-03T14:22:00;4.82;;;1.38;;
31978;SDS011;18502;43.574;1.276;2023-04-03T14:24:31;4.72;;;1.50;;
31978;SDS011;18502;43.574;1.276;2023-04-03T14:26:57;4.32;;;1.02;;
31978;SDS011;18502;43.574;1.276;2023-04-03T14:29:24;3.20;;;1.10;;
31978;SDS011;18502;43.574;1.276;2023-04-03T14:31:50;4.70;;;1.73;;
31978;SDS011;18502;43.574;1.276;2023-04-03T14:34:16;5.80;;;1.88;;
31978;SDS011;18502;43.574;1.276;2023-04-03T14:36:43;3.45;;;1.20;;
31978;SDS011;18502;43.574;1.276;2023-04-03T14:39:16;3.42;;;1.35;;
31978;SDS011;18502;43.574;1.276;2023-04-03T14:41:43;3.63;;;1.30;;
31978;SDS011;18502;43.574;1.276;2023-04-03T14:44:10;2.47;;;1.67;;
31978;SDS011;18502;43.574;1.276;2023-04-03T14:46:36;2.90;;;1.10;;
31978;SDS011;18502;43.574;1.276;2023-04-03T14:49:14;1.63;;;0.90;;
31978;SDS011;18502;43.574;1.276;2023-04-03T14:51:43;2.88;;;1.10;;
31978;SDS011;18502;43.574;1.276;2023-04-03T14:54:13;2.92;;;1.42;;
31978;SDS011;18502;43.574;1.276;2023-04-03T14:56:41;3.42;;;1.10;;
31978;SDS011;18502;43.574;1.276;2023-04-03T14:59:13;3.67;;;1.73;;
31978;SDS011;18502;43.574;1.276;2023-04-03T15:01:40;3.95;;;1.70;;
31978;SDS011;18502;43.574;1.276;2023-04-03T15:04:13;4.70;;;1.77;;
31978;SDS011;18502;43.574;1.276;2023-04-03T15:06:43;5.63;;;2.83;;
31978;SDS011;18502;43.574;1.276;2023-04-03T15:09:23;10.57;;;4.80;;
31978;SDS011;18502;43.574;1.276;2023-04-03T15:11:51;9.73;;;3.10;;
31978;SDS011;18502;43.574;1.276;2023-04-03T15:14:18;6.65;;;3.38;;
31978;SDS011;18502;43.574;1.276;2023-04-03T15:16:44;3.78;;;2.10;;
31978;SDS011;18502;43.574;1.276;2023-04-03T15:19:11;4.45;;;1.90;;
31978;SDS011;18502;43.574;1.276;2023-04-03T15:21:37;4.45;;;1.98;;
31978;SDS011;18502;43.574;1.276;2023-04-03T15:24:03;4.65;;;2.30;;
31978;SDS011;18502;43.574;1.276;2023-04-03T15:26:30;6.82;;;3.15;;
31978;SDS011;18502;43.574;1.276;2023-04-03T15:28:57;3.78;;;1.85;;
31978;SDS011;18502;43.574;1.276;2023-04-03T15:31:22;4.85;;;2.40;;
31978;SDS011;18502;43.574;1.276;2023-04-03T15:33:48;4.28;;;2.03;;
31978;SDS011;18502;43.574;1.276;2023-04-03T15:36:14;24.95;;;10.98;;
31978;SDS011;18502;43.574;1.276;2023-04-03T15:38:40;5.80;;;2.45;;
31978;SDS011;18502;43.574;1.276;2023-04-03T15:41:05;4.03;;;1.80;;
31978;SDS011;18502;43.574;1.276;2023-04-03T15:43:31;6.05;;;2.60;;
31978;SDS011;18502;43.574;1.276;2023-04-03T15:45:58;4.53;;;2.10;;
31978;SDS011;18502;43.574;1.276;2023-04-03T15:48:25;6.43;;;2.60;;
31978;SDS011;18502;43.574;1.276;2023-04-03T15:50:52;10.40;;;3.85;;
31978;SDS011;18502;43.574;1.276;2023-04-03T15:53:17;15.80;;;6.50;;
31978;SDS011;18502;43.574;1.276;2023-04-03T15:55:43;4.97;;;2.83;;
31978;SDS011;18502;43.574;1.276;2023-04-03T15:58:08;4.38;;;2.25;;
31978;SDS011;18502;43.574;1.276;2023-04-03T16:00:35;8.38;;;2.92;;
31978;SDS011;18502;43.574;1.276;2023-04-03T16:03:04;3.88;;;2.42;;
31978;SDS011;18502;43.574;1.276;2023-04-03T16:05:32;2.35;;;1.48;;
31978;SDS011;18502;43.574;1.276;2023-04-03T16:07:59;3.28;;;2.10;;
31978;SDS011;18502;43.574;1.276;2023-04-03T16:10:26;4.45;;;1.70;;
31978;SDS011;18502;43.574;1.276;2023-04-03T16:12:52;3.65;;;1.80;;
31978;SDS011;18502;43.574;1.276;2023-04-03T16:15:18;3.40;;;1.48;;
31978;SDS011;18502;43.574;1.276;2023-04-03T16:17:43;14.93;;;7.53;;
31978;SDS011;18502;43.574;1.276;2023-04-03T16:20:10;22.50;;;10.10;;
31978;SDS011;18502;43.574;1.276;2023-04-03T16:22:37;11.43;;;6.05;;
31978;SDS011;18502;43.574;1.276;2023-04-03T16:25:05;8.32;;;3.60;;
31978;SDS011;18502;43.574;1.276;2023-04-03T16:27:31;25.83;;;13.23;;
31978;SDS011;18502;43.574;1.276;2023-04-03T16:29:57;12.23;;;5.13;;
31978;SDS011;18502;43.574;1.276;2023-04-03T16:32:23;13.88;;;6.95;;
31978;SDS011;18502;43.574;1.276;2023-04-03T16:34:54;20.27;;;10.52;;
31978;SDS011;18502;43.574;1.276;2023-04-03T16:37:20;12.90;;;6.13;;
31978;SDS011;18502;43.574;1.276;2023-04-03T16:39:46;20.98;;;10.63;;
31978;SDS011;18502;43.574;1.276;2023-04-03T16:42:11;22.67;;;11.80;;
31978;SDS011;18502;43.574;1.276;2023-04-03T16:44:37;19.58;;;10.15;;
31978;SDS011;18502;43.574;1.276;2023-04-03T16:47:04;5.82;;;2.35;;